createdAt,value
2022-10-20T00:00:35.569Z,101024.19
2022-10-20T00:03:03.335Z,101018.75
2022-10-20T00:05:31.068Z,101014.44
2022-10-20T00:07:58.799Z,101006.63
2022-10-20T00:10:26.556Z,101000.94
2022-10-20T00:12:54.292Z,100987.09
2022-10-20T00:15:21.989Z,100989.75
2022-10-20T00:17:51.027Z,100983.75
2022-10-20T00:20:18.800Z,100977.88
2022-10-20T00:22:46.548Z,100961.84
2022-10-20T00:25:14.220Z,100945.00
2022-10-20T00:27:41.923Z,100952.69
2022-10-20T00:30:10.303Z,100958.94
2022-10-20T00:32:38.531Z,100954.34
2022-10-20T00:35:08.732Z,100959.91
2022-10-20T00:37:36.460Z,100960.88
2022-10-20T00:40:04.797Z,100958.34
2022-10-20T00:42:32.715Z,100956.81
2022-10-20T00:45:01.842Z,100961.84
2022-10-20T00:47:37.705Z,100949.06
2022-10-20T00:50:11.759Z,100943.31
2022-10-20T00:52:41.160Z,100938.72
2022-10-20T00:55:11.305Z,100949.31
2022-10-20T00:57:39.654Z,100936.06
2022-10-20T01:00:08.885Z,100935.63
2022-10-20T01:02:37.254Z,100934.53
2022-10-20T01:05:06.024Z,100926.97
2022-10-20T01:07:35.723Z,100920.00
2022-10-20T01:10:05.227Z,100912.75
2022-10-20T01:12:43.239Z,100916.25
2022-10-20T01:15:21.426Z,100916.13
2022-10-20T01:18:02.976Z,100906.75
2022-10-20T01:21:00.864Z,100896.16
2022-10-20T01:23:55.062Z,100894.09
2022-10-20T01:26:44.722Z,100885.44
2022-10-20T01:29:19.911Z,100880.97
2022-10-20T01:31:54.276Z,100886.00
2022-10-20T01:34:29.154Z,100884.34
2022-10-20T01:37:01.432Z,100876.38
2022-10-20T01:39:32.257Z,100880.72
2022-10-20T01:42:04.714Z,100885.19
2022-10-20T01:44:37.263Z,100889.38
2022-10-20T01:47:06.919Z,100886.00
2022-10-20T01:49:34.647Z,100886.56
2022-10-20T01:52:02.660Z,100872.06
2022-10-20T01:54:31.936Z,100869.84
2022-10-20T01:57:19.764Z,100857.44
2022-10-20T02:00:02.340Z,100848.66
2022-10-20T02:02:53.068Z,100842.53
2022-10-20T02:05:34.081Z,100835.56
2022-10-20T02:08:13.095Z,100837.22
2022-10-20T02:10:47.288Z,100831.22
2022-10-20T02:13:16.237Z,100812.38
2022-10-20T02:15:48.340Z,100820.50
2022-10-20T02:18:21.006Z,100822.00
2022-10-20T02:20:51.493Z,100828.84
2022-10-20T02:23:19.465Z,100817.44
2022-10-20T02:25:49.480Z,100807.97
2022-10-20T02:28:18.366Z,100818.81
2022-10-20T02:30:48.618Z,100804.63
2022-10-20T02:33:17.590Z,100805.44
2022-10-20T02:35:51.993Z,100806.28
2022-10-20T02:38:19.650Z,100800.84
2022-10-20T02:40:47.620Z,100798.19
2022-10-20T02:43:15.410Z,100804.47
2022-10-20T02:45:43.196Z,100806.13
2022-10-20T02:48:12.227Z,100807.13
2022-10-20T02:50:39.929Z,100799.84
2022-10-20T02:53:07.772Z,100797.38
2022-10-20T02:55:35.548Z,100787.31
2022-10-20T02:58:03.198Z,100783.97
2022-10-20T03:00:31.669Z,100783.84
2022-10-20T03:02:59.394Z,100782.59
2022-10-20T03:05:29.349Z,100776.03
2022-10-20T03:07:57.219Z,100772.53
2022-10-20T03:10:24.946Z,100774.09
2022-10-20T03:12:52.604Z,100768.38
2022-10-20T03:15:20.304Z,100778.97
2022-10-20T03:17:47.975Z,100783.00
2022-10-20T03:20:15.699Z,100768.91
2022-10-20T03:22:44.746Z,100770.91
2022-10-20T03:25:12.515Z,100764.06
2022-10-20T03:27:40.200Z,100762.25
2022-10-20T03:30:08.754Z,100759.88
2022-10-20T03:32:36.700Z,100759.59
2022-10-20T03:35:05.012Z,100767.25
2022-10-20T03:37:32.745Z,100756.66
2022-10-20T03:40:01.798Z,100756.38
2022-10-20T03:42:29.523Z,100753.75
2022-10-20T03:44:57.230Z,100758.19
2022-10-20T03:47:24.931Z,100750.53
2022-10-20T03:49:52.645Z,100750.25
2022-10-20T03:52:20.406Z,100750.13
2022-10-20T03:54:48.100Z,100737.72
2022-10-20T03:57:17.659Z,100735.91
2022-10-20T03:59:45.359Z,100735.19
2022-10-20T04:02:25.215Z,100729.50
2022-10-20T04:04:53.066Z,100718.47
2022-10-20T04:07:20.796Z,100710.00
2022-10-20T04:09:48.740Z,100702.59
2022-10-20T04:12:18.236Z,100726.41
2022-10-20T04:14:46.022Z,100727.13
2022-10-20T04:17:13.753Z,100733.38
2022-10-20T04:19:41.662Z,100739.13
2022-10-20T04:22:09.426Z,100737.97
2022-10-20T04:24:37.121Z,100720.72
2022-10-20T04:27:05.682Z,100708.31
2022-10-20T04:29:34.755Z,100690.03
2022-10-20T04:32:02.575Z,100695.63
2022-10-20T04:34:30.260Z,100698.97
2022-10-20T04:36:58.913Z,100693.66
2022-10-20T04:39:26.614Z,100680.84
2022-10-20T04:41:54.524Z,100685.59
2022-10-20T04:44:22.273Z,100692.69
2022-10-20T04:46:51.372Z,100677.78
2022-10-20T04:49:19.056Z,100672.09
2022-10-20T04:51:46.768Z,100665.22
2022-10-20T04:54:14.560Z,100656.31
2022-10-20T04:56:42.351Z,100656.88
2022-10-20T04:59:13.451Z,100665.81
2022-10-20T05:01:41.885Z,100666.38
2022-10-20T05:04:11.902Z,100652.44
2022-10-20T05:06:39.867Z,100653.25
2022-10-20T05:09:08.393Z,100649.50
2022-10-20T05:11:37.828Z,100642.66
2022-10-20T05:14:08.682Z,100645.19
2022-10-20T05:16:36.443Z,100631.50
2022-10-20T05:19:04.280Z,100630.41
2022-10-20T05:21:33.886Z,100625.81
2022-10-20T05:24:03.966Z,100631.94
2022-10-20T05:26:34.903Z,100633.75
2022-10-20T05:29:04.562Z,100616.19
2022-10-20T05:31:32.326Z,100604.88
2022-10-20T05:34:00.072Z,100603.22
2022-10-20T05:36:28.418Z,100618.28
2022-10-20T05:38:57.549Z,100618.28
2022-10-20T05:41:27.072Z,100617.28
2022-10-20T05:43:57.182Z,100600.97
2022-10-20T05:46:26.231Z,100608.09
2022-10-20T05:48:55.327Z,100607.25
2022-10-20T05:51:25.750Z,100615.06
2022-10-20T05:53:57.925Z,100608.75
2022-10-20T05:56:26.976Z,100612.00
2022-10-20T05:58:55.026Z,100601.69
2022-10-20T06:01:24.870Z,100600.00
2022-10-20T06:03:54.453Z,100594.56
2022-10-20T06:06:24.496Z,100586.34
2022-10-20T06:08:53.478Z,100601.53
2022-10-20T06:11:24.062Z,100587.47
2022-10-20T06:13:53.148Z,100594.56
2022-10-20T06:16:23.347Z,100589.97
2022-10-20T06:18:51.372Z,100607.53
2022-10-20T06:21:21.379Z,100606.13
2022-10-20T06:23:50.191Z,100593.31
2022-10-20T06:26:20.462Z,100605.88
2022-10-20T06:28:51.802Z,100606.44
2022-10-20T06:31:20.773Z,100622.19
2022-10-20T06:33:49.011Z,100634.59
2022-10-20T06:36:17.266Z,100631.94
2022-10-20T06:38:45.716Z,100626.50
2022-10-20T06:41:16.132Z,100623.72
2022-10-20T06:43:44.368Z,100624.28
2022-10-20T06:46:16.277Z,100625.63
2022-10-20T06:48:44.339Z,100618.97
2022-10-20T06:51:14.359Z,100618.38
2022-10-20T06:53:46.528Z,100613.38
2022-10-20T06:56:16.424Z,100614.75
2022-10-20T06:58:46.440Z,100619.09
2022-10-20T07:01:18.219Z,100614.47
2022-10-20T07:03:48.789Z,100611.56
2022-10-20T07:06:18.348Z,100618.09
2022-10-20T07:08:47.265Z,100623.13
2022-10-20T07:11:17.597Z,100633.72
2022-10-20T07:13:46.107Z,100632.75
2022-10-20T07:16:16.867Z,100650.31
2022-10-20T07:18:45.148Z,100644.88
2022-10-20T07:21:15.264Z,100635.94
2022-10-20T07:23:43.366Z,100651.41
2022-10-20T07:26:14.184Z,100646.53
2022-10-20T07:28:43.606Z,100632.28
2022-10-20T07:31:13.701Z,100618.34
2022-10-20T07:33:42.974Z,100611.94
2022-10-20T07:36:15.989Z,100580.41
2022-10-20T07:38:43.764Z,100583.59
2022-10-20T07:41:12.126Z,100592.91
2022-10-20T07:43:41.034Z,100585.66
2022-10-20T07:46:09.315Z,100587.88
2022-10-20T07:48:37.319Z,100588.72
2022-10-20T07:51:17.985Z,100593.13
2022-10-20T07:53:45.854Z,100605.13
2022-10-20T07:56:13.851Z,100596.34
2022-10-20T07:58:42.011Z,100606.66
2022-10-20T08:01:10.476Z,100614.19
2022-10-20T08:03:38.235Z,100620.31
2022-10-20T08:06:07.083Z,100612.88
2022-10-20T08:08:36.241Z,100600.59
2022-10-20T08:11:04.452Z,100597.50
2022-10-20T08:13:32.808Z,100607.28
2022-10-20T08:16:01.846Z,100595.25
2022-10-20T08:18:29.679Z,100593.81
2022-10-20T08:21:07.308Z,100592.00
2022-10-20T08:23:39.365Z,100586.56
2022-10-20T08:26:10.713Z,100588.63
2022-10-20T08:28:39.594Z,100597.97
2022-10-20T08:31:08.855Z,100603.78
2022-10-20T08:33:37.037Z,100611.31
2022-10-20T08:36:06.368Z,100604.44
2022-10-20T08:38:34.335Z,100616.41
2022-10-20T08:41:04.014Z,100604.78
2022-10-20T08:43:33.376Z,100596.16
2022-10-20T08:46:01.139Z,100601.72
2022-10-20T08:48:33.396Z,100604.78
2022-10-20T08:51:01.364Z,100602.28
2022-10-20T08:53:34.395Z,100600.31
2022-10-20T08:56:03.468Z,100599.97
2022-10-20T08:58:31.203Z,100595.97
2022-10-20T09:01:01.028Z,100590.53
2022-10-20T09:03:30.729Z,100590.97
2022-10-20T09:06:07.366Z,100607.03
2022-10-20T09:08:37.983Z,100596.28
2022-10-20T09:11:09.093Z,100590.81
2022-10-20T09:13:38.310Z,100581.34
2022-10-20T09:16:18.366Z,100583.31
2022-10-20T09:18:58.576Z,100591.66
2022-10-20T09:21:26.967Z,100589.38
2022-10-20T09:24:01.344Z,100593.09
2022-10-20T09:26:54.651Z,100589.84
2022-10-20T09:29:36.090Z,100587.84
2022-10-20T09:32:34.027Z,100594.81
2022-10-20T09:34:51.516Z,100589.22
2022-10-20T09:37:20.914Z,100594.53
2022-10-20T09:39:55.937Z,100586.25
2022-10-20T09:42:30.080Z,100583.59
2022-10-20T09:45:01.518Z,100569.88
2022-10-20T09:47:29.969Z,100572.69
2022-10-20T09:50:01.330Z,100591.13
2022-10-20T09:52:34.394Z,100576.88
2022-10-20T09:55:06.154Z,100586.31
2022-10-20T09:57:35.911Z,100588.00
2022-10-20T10:00:13.465Z,100574.34
2022-10-20T10:03:09.682Z,100568.56
2022-10-20T10:05:37.500Z,100579.66
2022-10-20T10:08:05.442Z,100587.94
2022-10-20T10:10:33.337Z,100600.38
2022-10-20T10:15:34.405Z,100597.97
2022-10-20T10:18:13.817Z,100582.63
2022-10-20T10:20:42.372Z,100596.09
2022-10-20T10:23:24.371Z,100596.63
2022-10-20T10:25:53.407Z,100584.69
2022-10-20T10:28:35.271Z,100593.78
2022-10-20T10:31:19.487Z,100578.00
2022-10-20T10:33:47.519Z,100581.50
2022-10-20T10:36:22.301Z,100570.72
2022-10-20T10:38:50.013Z,100557.88
2022-10-20T10:41:25.171Z,100550.69
2022-10-20T10:44:03.790Z,100547.66
2022-10-20T10:46:37.949Z,100544.63
2022-10-20T10:49:42.688Z,100543.72
2022-10-20T10:52:26.428Z,100531.94
2022-10-20T10:55:03.283Z,100519.84
2022-10-20T10:57:37.563Z,100533.75
2022-10-20T11:00:17.199Z,100517.00
2022-10-20T11:03:11.429Z,100515.81
2022-10-20T11:06:03.029Z,100507.16
2022-10-20T11:08:47.430Z,100509.13
2022-10-20T11:11:27.412Z,100509.13
2022-10-20T11:14:08.367Z,100538.47
2022-10-20T11:16:42.650Z,100546.28
2022-10-20T11:19:35.894Z,100544.63
2022-10-20T11:22:16.761Z,100552.19
2022-10-20T11:24:50.037Z,100546.69
2022-10-20T11:27:20.079Z,100545.25
2022-10-20T11:29:50.812Z,100547.81
2022-10-20T11:32:28.027Z,100562.59
2022-10-20T11:35:04.207Z,100551.84
2022-10-20T11:37:36.792Z,100525.94
2022-10-20T11:40:16.227Z,100544.72
2022-10-20T11:42:51.198Z,100542.59
2022-10-20T11:45:35.475Z,100528.78
2022-10-20T11:48:13.146Z,100530.75
2022-10-20T11:50:43.128Z,100536.06
2022-10-20T11:53:39.788Z,100535.63
2022-10-20T11:56:34.132Z,100532.13
2022-10-20T11:59:42.740Z,100525.66
2022-10-20T12:02:41.626Z,100514.38
2022-10-20T12:05:35.085Z,100524.31
2022-10-20T12:08:35.949Z,100514.00
2022-10-20T12:11:11.668Z,100493.06
2022-10-20T12:13:48.958Z,100469.19
2022-10-20T12:16:49.989Z,100478.25
2022-10-20T12:19:19.933Z,100482.16
2022-10-20T12:22:00.209Z,100493.91
2022-10-20T12:24:34.855Z,100492.75
2022-10-20T12:27:19.155Z,100448.94
2022-10-20T12:30:01.800Z,100462.88
2022-10-20T12:32:54.183Z,100432.41
2022-10-20T12:35:47.616Z,100437.88
2022-10-20T12:38:19.927Z,100425.13
2022-10-20T12:40:52.693Z,100441.19
2022-10-20T12:43:27.275Z,100424.28
2022-10-20T12:45:59.827Z,100429.44
2022-10-20T12:48:28.470Z,100407.31
2022-10-20T12:51:07.518Z,100443.44
2022-10-20T12:53:36.870Z,100437.97
2022-10-20T12:56:08.879Z,100441.81
2022-10-20T12:58:38.284Z,100442.19
2022-10-20T13:01:13.286Z,100428.53
2022-10-20T13:03:44.183Z,100426.78
2022-10-20T13:06:40.650Z,100428.97
2022-10-20T13:09:27.759Z,100430.97
2022-10-20T13:11:59.339Z,100428.34
2022-10-20T13:14:34.578Z,100420.81
2022-10-20T13:17:13.690Z,100393.47
2022-10-20T13:19:48.443Z,100399.44
2022-10-20T13:22:35.911Z,100402.75
2022-10-20T13:25:07.878Z,100412.47
2022-10-20T13:27:38.992Z,100430.06
2022-10-20T13:30:09.371Z,100412.78
2022-10-20T13:33:10.833Z,100405.81
2022-10-20T13:35:48.012Z,100410.13
2022-10-20T13:38:21.819Z,100422.88
2022-10-20T13:43:43.417Z,100407.63
2022-10-20T13:46:25.397Z,100402.16
2022-10-20T13:49:20.136Z,100401.03
2022-10-20T13:52:00.844Z,100403.53
2022-10-20T13:54:33.249Z,100376.25
2022-10-20T13:57:03.482Z,100385.28
2022-10-20T14:02:25.544Z,100384.38
2022-10-20T14:05:03.777Z,100392.72
2022-10-20T14:07:42.556Z,100395.69
2022-10-20T14:10:26.672Z,100399.03
2022-10-20T14:12:56.810Z,100391.88
2022-10-20T14:15:31.584Z,100391.72
2022-10-20T14:18:02.579Z,100385.88
2022-10-20T14:20:32.012Z,100372.75
2022-10-20T14:23:01.338Z,100389.38
2022-10-20T14:25:31.400Z,100383.22
2022-10-20T14:28:05.134Z,100380.72
2022-10-20T14:30:40.195Z,100367.59
2022-10-20T14:33:16.017Z,100370.63
2022-10-20T14:35:48.457Z,100352.28
2022-10-20T14:38:23.798Z,100373.59
2022-10-20T14:40:55.972Z,100375.25
2022-10-20T14:43:37.151Z,100368.63
2022-10-20T14:46:06.509Z,100367.47
2022-10-20T14:48:37.771Z,100343.50
2022-10-20T14:51:31.046Z,100365.13
2022-10-20T14:54:19.940Z,100356.81
2022-10-20T14:56:51.239Z,100382.91
2022-10-20T14:59:23.331Z,100376.03
2022-10-20T15:02:08.547Z,100375.22
2022-10-20T15:04:40.039Z,100381.72
2022-10-20T15:07:13.614Z,100377.69
2022-10-20T15:09:43.953Z,100378.69
2022-10-20T15:56:23.636Z,100333.44
2022-10-20T15:58:51.452Z,100335.44
2022-10-20T16:01:20.804Z,100328.13
2022-10-20T16:03:49.451Z,100319.50
2022-10-20T16:06:18.976Z,100334.59
2022-10-20T16:08:48.005Z,100321.47
2022-10-20T16:11:17.285Z,100319.81
2022-10-20T16:13:46.403Z,100303.81
2022-10-20T16:16:16.282Z,100308.50
2022-10-20T16:18:44.082Z,100309.81
2022-10-20T16:21:11.796Z,100308.00
2022-10-20T16:23:42.356Z,100308.66
2022-10-20T16:26:13.982Z,100299.19
2022-10-20T16:28:43.031Z,100304.50
2022-10-20T16:31:14.073Z,100304.50
2022-10-20T16:33:42.071Z,100272.91
2022-10-20T16:36:14.606Z,100301.53
2022-10-20T16:38:42.338Z,100295.22
2022-10-20T16:41:12.404Z,100299.34
2022-10-20T16:43:40.893Z,100301.16
2022-10-20T16:46:10.027Z,100305.66
2022-10-20T16:48:41.513Z,100306.63
2022-10-20T16:51:12.111Z,100316.47
2022-10-20T16:53:39.849Z,100311.47
2022-10-20T16:56:08.679Z,100306.81
2022-10-20T16:58:36.749Z,100312.13
2022-10-20T17:01:08.414Z,100302.81
2022-10-20T17:03:36.630Z,100303.81
2022-10-20T17:06:07.918Z,100306.78
2022-10-20T17:08:37.268Z,100306.78
2022-10-20T17:11:07.687Z,100297.28
2022-10-20T17:13:36.766Z,100306.09
2022-10-20T17:16:06.416Z,100302.47
2022-10-20T17:18:34.315Z,100307.44
2022-10-20T17:21:02.452Z,100307.44
2022-10-20T17:23:37.390Z,100294.84
2022-10-20T17:26:09.731Z,100299.34
2022-10-20T17:28:38.248Z,100307.44
2022-10-20T17:31:07.922Z,100305.47
2022-10-20T17:33:35.993Z,100310.78
2022-10-20T17:36:03.736Z,100265.53
2022-10-20T17:38:33.012Z,100314.44
2022-10-20T17:41:04.133Z,100313.59
2022-10-20T17:43:32.091Z,100309.94
2022-10-20T17:46:01.316Z,100311.09
2022-10-20T17:48:29.367Z,100306.63
2022-10-20T17:51:01.374Z,100291.91
2022-10-20T17:53:31.271Z,100317.09
2022-10-20T17:56:03.401Z,100317.09
2022-10-20T17:58:31.525Z,100310.09
2022-10-20T18:01:08.484Z,100313.59
2022-10-20T18:03:36.571Z,100319.75
2022-10-20T18:06:09.246Z,100296.69
2022-10-20T18:08:37.404Z,100313.44
2022-10-20T18:11:10.565Z,100313.44
2022-10-20T18:13:38.859Z,100314.28
2022-10-20T18:16:08.477Z,100310.78
2022-10-20T18:18:36.885Z,100295.78
2022-10-20T18:21:06.042Z,100291.53
2022-10-20T18:23:36.056Z,100281.56
2022-10-20T18:26:10.273Z,100289.53
2022-10-20T18:28:42.024Z,100291.88
2022-10-20T18:31:17.418Z,100278.88
2022-10-20T18:33:45.565Z,100295.69
2022-10-20T18:36:14.761Z,100294.53
2022-10-20T18:38:44.394Z,100298.19
2022-10-20T18:41:16.604Z,100287.19
2022-10-20T18:43:45.726Z,100280.28
2022-10-20T18:46:14.860Z,100272.31
2022-10-20T18:48:43.038Z,100274.28
2022-10-20T18:51:12.182Z,100278.75
2022-10-20T18:56:11.715Z,100256.00
2022-10-20T18:58:42.205Z,100254.34
2022-10-20T19:01:11.918Z,100249.72
2022-10-20T19:03:40.752Z,100256.69
2022-10-20T19:06:10.785Z,100261.00
2022-10-20T19:08:39.262Z,100252.88
2022-10-20T19:11:10.169Z,100253.03
2022-10-20T19:13:40.275Z,100253.72
2022-10-20T19:16:09.699Z,100227.59
2022-10-20T19:18:39.342Z,100225.97
2022-10-20T19:21:08.767Z,100241.09
2022-10-20T19:23:39.635Z,100213.34
2022-10-20T19:26:09.522Z,100232.81
2022-10-20T19:28:41.043Z,100222.50
2022-10-20T19:31:21.230Z,100224.84
2022-10-20T19:33:51.146Z,100213.88
2022-10-20T19:36:19.085Z,100212.22
2022-10-20T19:38:47.250Z,100206.75
2022-10-20T19:41:15.528Z,100196.59
2022-10-20T19:43:45.063Z,100196.13
2022-10-20T19:46:15.980Z,100197.44
2022-10-20T19:48:45.280Z,100204.25
2022-10-20T19:51:13.765Z,100201.59
2022-10-20T19:53:41.752Z,100201.25
2022-10-20T19:56:10.799Z,100201.25
2022-10-20T19:58:42.781Z,100199.44
2022-10-20T20:01:14.998Z,100184.31
2022-10-20T20:03:43.190Z,100181.03
2022-10-20T20:06:16.103Z,100184.31
2022-10-20T20:08:45.519Z,100201.91
2022-10-20T20:11:22.777Z,100194.94
2022-10-20T20:13:51.484Z,100184.31
2022-10-20T20:16:21.360Z,100166.56
2022-10-20T20:18:49.767Z,100162.25
2022-10-20T20:21:18.106Z,100170.41
2022-10-20T20:24:01.443Z,100163.75
2022-10-20T20:26:30.177Z,100159.13
2022-10-20T20:28:58.388Z,100152.13
2022-10-20T20:31:28.571Z,100148.50
2022-10-20T20:33:57.672Z,100167.09
2022-10-20T20:36:27.515Z,100170.72
2022-10-20T20:38:58.128Z,100165.41
2022-10-20T20:41:28.232Z,100148.50
2022-10-20T20:43:56.049Z,100145.00
2022-10-20T20:46:26.673Z,100151.00
2022-10-20T20:48:55.944Z,100127.91
2022-10-20T20:51:25.119Z,100134.22
2022-10-20T20:53:52.869Z,100138.53
2022-10-20T20:56:23.106Z,100146.31
2022-10-20T20:58:55.068Z,100126.91
2022-10-20T21:01:24.958Z,100119.09
2022-10-20T21:03:55.498Z,100134.22
2022-10-20T21:06:33.233Z,100132.56
2022-10-20T21:09:02.538Z,100147.19
2022-10-20T21:11:30.354Z,100147.00
2022-10-20T21:13:59.742Z,100151.50
2022-10-20T21:16:29.314Z,100117.44
2022-10-20T21:19:00.117Z,100156.47
2022-10-20T21:21:29.384Z,100147.16
2022-10-20T21:23:58.303Z,100148.00
2022-10-20T21:26:27.502Z,100139.88
2022-10-20T21:28:55.772Z,100143.19
2022-10-20T21:31:25.967Z,100157.47
2022-10-20T21:33:55.810Z,100153.81
2022-10-20T21:36:26.135Z,100148.00
2022-10-20T21:38:54.347Z,100160.97
2022-10-20T21:41:23.320Z,100164.44
2022-10-20T21:43:52.863Z,100156.31
2022-10-20T21:46:22.995Z,100156.16
2022-10-20T21:48:52.905Z,100161.31
2022-10-20T21:51:22.964Z,100165.47
2022-10-20T21:53:55.752Z,100168.28
2022-10-20T21:56:23.504Z,100183.06
2022-10-20T21:58:51.375Z,100178.53
2022-10-20T22:01:21.822Z,100177.75
2022-10-20T22:03:51.144Z,100181.41
2022-10-20T22:06:21.059Z,100168.44
2022-10-20T22:08:53.016Z,100171.59
2022-10-20T22:11:23.951Z,100174.72
2022-10-20T22:13:51.888Z,100178.22
2022-10-20T22:16:23.107Z,100166.28
2022-10-20T22:18:55.589Z,100167.75
2022-10-20T22:21:24.178Z,100162.59
2022-10-20T22:23:55.427Z,100164.09
2022-10-20T22:26:25.702Z,100172.25
2022-10-20T22:28:54.376Z,100166.09
2022-10-20T22:31:22.961Z,100155.00
2022-10-20T22:33:55.868Z,100161.13
2022-10-20T22:36:24.381Z,100158.97
2022-10-20T22:38:52.228Z,100155.13
2022-10-20T22:41:21.814Z,100154.47
2022-10-20T22:43:49.561Z,100163.13
2022-10-20T22:46:17.773Z,100149.16
2022-10-20T22:48:46.224Z,100147.00
2022-10-20T22:51:15.218Z,100153.31
2022-10-20T22:53:44.534Z,100156.50
2022-10-20T22:56:14.796Z,100152.47
2022-10-20T22:58:44.618Z,100147.16
2022-10-20T23:01:17.283Z,100141.84
2022-10-20T23:03:45.299Z,100133.56
2022-10-20T23:06:15.432Z,100141.19
2022-10-20T23:08:52.154Z,100146.34
2022-10-20T23:11:24.293Z,100131.56
2022-10-20T23:13:53.771Z,100124.94
2022-10-20T23:16:21.730Z,100120.28
2022-10-20T23:18:49.542Z,100142.84
2022-10-20T23:21:20.099Z,100136.53
2022-10-20T23:23:47.909Z,100127.56
2022-10-20T23:26:15.729Z,100132.88
2022-10-20T23:28:43.520Z,100126.91
2022-10-20T23:31:13.748Z,100113.28
2022-10-20T23:33:42.901Z,100098.34
2022-10-20T23:36:11.039Z,100097.34
2022-10-20T23:38:39.062Z,100084.41
2022-10-20T23:41:07.409Z,100085.06
2022-10-20T23:46:04.732Z,100061.16
2022-10-20T23:48:34.354Z,100054.84
2022-10-20T23:51:02.619Z,100026.94
2022-10-20T23:53:31.549Z,100023.97
2022-10-20T23:55:59.263Z,100020.47
2022-10-20T23:58:27.245Z,100022.13
